sensor_id;sensor_type;location;lat;lon;timestamp;P1;durP1;ratioP1;P2;durP2;ratioP2
20709;SDS011;10516;51.518;9.864;2023-07-20T00:00:58;8.73;;;5.20;;
20709;SDS011;10516;51.518;9.864;2023-07-20T00:03:23;10.55;;;6.10;;
20709;SDS011;10516;51.518;9.864;2023-07-20T00:05:50;7.47;;;5.32;;
20709;SDS011;10516;51.518;9.864;2023-07-20T00:08:18;9.48;;;5.55;;
20709;SDS011;10516;51.518;9.864;2023-07-20T00:10:44;10.23;;;5.60;;
20709;SDS011;10516;51.518;9.864;2023-07-20T00:13:10;9.57;;;6.35;;
20709;SDS011;10516;51.518;9.864;2023-07-20T00:15:36;17.35;;;6.78;;
20709;SDS011;10516;51.518;9.864;2023-07-20T00:18:02;13.27;;;6.82;;
20709;SDS011;10516;51.518;9.864;2023-07-20T00:20:28;12.90;;;7.40;;
20709;SDS011;10516;51.518;9.864;2023-07-20T00:22:54;7.57;;;6.03;;
20709;SDS011;10516;51.518;9.864;2023-07-20T00:25:20;8.27;;;5.95;;
20709;SDS011;10516;51.518;9.864;2023-07-20T00:27:45;9.32;;;6.78;;
20709;SDS011;10516;51.518;9.864;2023-07-20T00:30:11;8.30;;;5.47;;
20709;SDS011;10516;51.518;9.864;2023-07-20T00:32:36;7.60;;;5.13;;
20709;SDS011;10516;51.518;9.864;2023-07-20T00:35:02;6.95;;;4.03;;
20709;SDS011;10516;51.518;9.864;2023-07-20T00:37:27;6.25;;;4.43;;
20709;SDS011;10516;51.518;9.864;2023-07-20T00:39:54;3.80;;;2.92;;
20709;SDS011;10516;51.518;9.864;2023-07-20T00:42:19;5.20;;;2.90;;
20709;SDS011;10516;51.518;9.864;2023-07-20T00:44:45;3.17;;;1.90;;
20709;SDS011;10516;51.518;9.864;2023-07-20T00:47:10;3.28;;;2.30;;
20709;SDS011;10516;51.518;9.864;2023-07-20T00:49:36;5.05;;;1.88;;
20709;SDS011;10516;51.518;9.864;2023-07-20T00:52:02;2.63;;;2.42;;
20709;SDS011;10516;51.518;9.864;2023-07-20T00:54:31;3.78;;;2.15;;
20709;SDS011;10516;51.518;9.864;2023-07-20T00:56:56;2.22;;;1.70;;
20709;SDS011;10516;51.518;9.864;2023-07-20T00:59:23;2.60;;;2.40;;
20709;SDS011;10516;51.518;9.864;2023-07-20T01:01:48;4.25;;;2.90;;
20709;SDS011;10516;51.518;9.864;2023-07-20T01:04:14;6.43;;;2.83;;
20709;SDS011;10516;51.518;9.864;2023-07-20T01:06:48;3.22;;;2.92;;
20709;SDS011;10516;51.518;9.864;2023-07-20T01:09:34;4.82;;;3.83;;
20709;SDS011;10516;51.518;9.864;2023-07-20T01:12:27;8.32;;;3.88;;
20709;SDS011;10516;51.518;9.864;2023-07-20T01:15:01;5.75;;;3.13;;
20709;SDS011;10516;51.518;9.864;2023-07-20T01:17:27;6.60;;;4.72;;
20709;SDS011;10516;51.518;9.864;2023-07-20T01:19:52;5.25;;;3.80;;
20709;SDS011;10516;51.518;9.864;2023-07-20T01:33:50;4.53;;;3.60;;
20709;SDS011;10516;51.518;9.864;2023-07-20T01:36:17;4.25;;;3.63;;
20709;SDS011;10516;51.518;9.864;2023-07-20T01:38:45;5.10;;;3.78;;
20709;SDS011;10516;51.518;9.864;2023-07-20T01:41:11;4.70;;;3.03;;
20709;SDS011;10516;51.518;9.864;2023-07-20T01:43:37;6.00;;;3.72;;
20709;SDS011;10516;51.518;9.864;2023-07-20T01:46:02;5.60;;;3.78;;
20709;SDS011;10516;51.518;9.864;2023-07-20T01:48:27;3.92;;;3.63;;
20709;SDS011;10516;51.518;9.864;2023-07-20T01:50:53;4.20;;;3.25;;
20709;SDS011;10516;51.518;9.864;2023-07-20T01:53:19;4.85;;;3.08;;
20709;SDS011;10516;51.518;9.864;2023-07-20T01:55:45;5.00;;;2.90;;
20709;SDS011;10516;51.518;9.864;2023-07-20T01:58:10;3.72;;;2.90;;
20709;SDS011;10516;51.518;9.864;2023-07-20T02:00:39;3.70;;;3.22;;
20709;SDS011;10516;51.518;9.864;2023-07-20T02:03:04;4.13;;;3.75;;
20709;SDS011;10516;51.518;9.864;2023-07-20T02:05:30;7.85;;;3.58;;
20709;SDS011;10516;51.518;9.864;2023-07-20T02:07:55;3.95;;;2.72;;
20709;SDS011;10516;51.518;9.864;2023-07-20T02:10:21;4.57;;;3.42;;
20709;SDS011;10516;51.518;9.864;2023-07-20T02:12:46;3.50;;;2.85;;
20709;SDS011;10516;51.518;9.864;2023-07-20T02:15:12;5.93;;;3.17;;
20709;SDS011;10516;51.518;9.864;2023-07-20T02:17:41;5.03;;;4.10;;
20709;SDS011;10516;51.518;9.864;2023-07-20T02:20:07;11.02;;;4.00;;
20709;SDS011;10516;51.518;9.864;2023-07-20T02:22:36;4.38;;;2.97;;
20709;SDS011;10516;51.518;9.864;2023-07-20T02:25:05;7.55;;;4.25;;
20709;SDS011;10516;51.518;9.864;2023-07-20T02:27:32;5.72;;;3.90;;
20709;SDS011;10516;51.518;9.864;2023-07-20T02:29:58;6.70;;;3.75;;
20709;SDS011;10516;51.518;9.864;2023-07-20T02:32:23;3.83;;;2.78;;
20709;SDS011;10516;51.518;9.864;2023-07-20T02:34:49;4.30;;;3.55;;
20709;SDS011;10516;51.518;9.864;2023-07-20T02:37:15;6.55;;;3.95;;
20709;SDS011;10516;51.518;9.864;2023-07-20T02:39:41;5.95;;;5.10;;
20709;SDS011;10516;51.518;9.864;2023-07-20T02:42:07;7.75;;;2.80;;
20709;SDS011;10516;51.518;9.864;2023-07-20T02:44:32;4.47;;;3.78;;
20709;SDS011;10516;51.518;9.864;2023-07-20T02:46:57;5.22;;;3.08;;
20709;SDS011;10516;51.518;9.864;2023-07-20T02:49:23;6.88;;;3.03;;
20709;SDS011;10516;51.518;9.864;2023-07-20T02:51:48;5.75;;;2.50;;
20709;SDS011;10516;51.518;9.864;2023-07-20T02:54:13;3.45;;;2.47;;
20709;SDS011;10516;51.518;9.864;2023-07-20T02:56:39;3.33;;;2.40;;
20709;SDS011;10516;51.518;9.864;2023-07-20T02:59:05;3.10;;;2.58;;
20709;SDS011;10516;51.518;9.864;2023-07-20T03:01:30;11.52;;;2.80;;
20709;SDS011;10516;51.518;9.864;2023-07-20T03:03:55;2.85;;;2.55;;
20709;SDS011;10516;51.518;9.864;2023-07-20T03:06:21;2.33;;;2.13;;
20709;SDS011;10516;51.518;9.864;2023-07-20T03:08:47;4.05;;;2.17;;
20709;SDS011;10516;51.518;9.864;2023-07-20T03:11:16;2.60;;;2.40;;
20709;SDS011;10516;51.518;9.864;2023-07-20T03:13:43;3.00;;;2.30;;
20709;SDS011;10516;51.518;9.864;2023-07-20T03:16:09;2.22;;;1.90;;
20709;SDS011;10516;51.518;9.864;2023-07-20T03:18:40;3.05;;;2.67;;
20709;SDS011;10516;51.518;9.864;2023-07-20T03:21:07;5.07;;;3.28;;
20709;SDS011;10516;51.518;9.864;2023-07-20T03:23:33;3.10;;;2.78;;
20709;SDS011;10516;51.518;9.864;2023-07-20T03:25:59;5.78;;;3.40;;
20709;SDS011;10516;51.518;9.864;2023-07-20T03:28:25;3.58;;;2.80;;
20709;SDS011;10516;51.518;9.864;2023-07-20T03:30:54;6.05;;;3.05;;
20709;SDS011;10516;51.518;9.864;2023-07-20T03:33:21;3.38;;;2.72;;
20709;SDS011;10516;51.518;9.864;2023-07-20T03:35:47;3.95;;;3.20;;
20709;SDS011;10516;51.518;9.864;2023-07-20T03:38:12;4.10;;;3.15;;
20709;SDS011;10516;51.518;9.864;2023-07-20T03:40:38;4.57;;;3.80;;
20709;SDS011;10516;51.518;9.864;2023-07-20T03:43:03;7.03;;;3.53;;
20709;SDS011;10516;51.518;9.864;2023-07-20T03:45:28;4.57;;;4.18;;
20709;SDS011;10516;51.518;9.864;2023-07-20T03:47:54;4.30;;;3.90;;
20709;SDS011;10516;51.518;9.864;2023-07-20T03:50:19;7.10;;;6.40;;
20709;SDS011;10516;51.518;9.864;2023-07-20T03:52:44;4.78;;;4.28;;
20709;SDS011;10516;51.518;9.864;2023-07-20T03:55:10;8.38;;;6.40;;
20709;SDS011;10516;51.518;9.864;2023-07-20T03:57:35;5.72;;;5.18;;
20709;SDS011;10516;51.518;9.864;2023-07-20T04:00:00;6.15;;;4.55;;
20709;SDS011;10516;51.518;9.864;2023-07-20T04:02:26;11.55;;;6.60;;
20709;SDS011;10516;51.518;9.864;2023-07-20T04:04:51;11.80;;;8.10;;
20709;SDS011;10516;51.518;9.864;2023-07-20T04:07:16;8.02;;;6.05;;
20709;SDS011;10516;51.518;9.864;2023-07-20T04:09:42;5.65;;;5.05;;
20709;SDS011;10516;51.518;9.864;2023-07-20T04:12:07;6.10;;;5.53;;
20709;SDS011;10516;51.518;9.864;2023-07-20T04:14:33;9.68;;;7.03;;
20709;SDS011;10516;51.518;9.864;2023-07-20T04:16:58;4.78;;;4.38;;
20709;SDS011;10516;51.518;9.864;2023-07-20T04:19:25;6.05;;;5.45;;
20709;SDS011;10516;51.518;9.864;2023-07-20T04:21:50;5.85;;;5.35;;
20709;SDS011;10516;51.518;9.864;2023-07-20T04:24:16;6.57;;;5.13;;
20709;SDS011;10516;51.518;9.864;2023-07-20T04:26:41;8.20;;;6.25;;
20709;SDS011;10516;51.518;9.864;2023-07-20T04:29:07;6.75;;;5.82;;
20709;SDS011;10516;51.518;9.864;2023-07-20T04:31:32;5.90;;;5.38;;
20709;SDS011;10516;51.518;9.864;2023-07-20T04:33:58;6.20;;;5.57;;
20709;SDS011;10516;51.518;9.864;2023-07-20T04:36:23;9.48;;;6.50;;
20709;SDS011;10516;51.518;9.864;2023-07-20T04:38:49;7.45;;;6.00;;
20709;SDS011;10516;51.518;9.864;2023-07-20T04:41:14;7.15;;;6.10;;
20709;SDS011;10516;51.518;9.864;2023-07-20T04:43:43;12.02;;;8.50;;
20709;SDS011;10516;51.518;9.864;2023-07-20T04:46:09;6.95;;;6.07;;
20709;SDS011;10516;51.518;9.864;2023-07-20T04:48:36;6.40;;;5.80;;
20709;SDS011;10516;51.518;9.864;2023-07-20T04:51:02;7.93;;;6.25;;
20709;SDS011;10516;51.518;9.864;2023-07-20T04:53:28;6.93;;;6.20;;
20709;SDS011;10516;51.518;9.864;2023-07-20T04:55:53;8.20;;;6.35;;
20709;SDS011;10516;51.518;9.864;2023-07-20T04:58:19;8.60;;;6.60;;
20709;SDS011;10516;51.518;9.864;2023-07-20T05:00:47;8.20;;;6.57;;
20709;SDS011;10516;51.518;9.864;2023-07-20T05:03:13;7.82;;;6.97;;
20709;SDS011;10516;51.518;9.864;2023-07-20T05:05:39;9.52;;;6.60;;
20709;SDS011;10516;51.518;9.864;2023-07-20T05:08:04;14.70;;;10.88;;
20709;SDS011;10516;51.518;9.864;2023-07-20T05:10:30;11.38;;;7.43;;
20709;SDS011;10516;51.518;9.864;2023-07-20T05:12:55;8.85;;;7.43;;
20709;SDS011;10516;51.518;9.864;2023-07-20T05:15:20;8.70;;;7.05;;
20709;SDS011;10516;51.518;9.864;2023-07-20T05:17:46;12.50;;;7.20;;
20709;SDS011;10516;51.518;9.864;2023-07-20T05:20:13;10.20;;;7.53;;
20709;SDS011;10516;51.518;9.864;2023-07-20T05:22:39;8.05;;;7.25;;
20709;SDS011;10516;51.518;9.864;2023-07-20T05:25:08;9.55;;;8.18;;
20709;SDS011;10516;51.518;9.864;2023-07-20T05:27:36;7.60;;;6.80;;
20709;SDS011;10516;51.518;9.864;2023-07-20T05:30:02;10.18;;;8.32;;
20709;SDS011;10516;51.518;9.864;2023-07-20T05:32:27;8.63;;;7.80;;
20709;SDS011;10516;51.518;9.864;2023-07-20T05:34:53;10.65;;;7.25;;
20709;SDS011;10516;51.518;9.864;2023-07-20T05:37:19;10.07;;;7.57;;
20709;SDS011;10516;51.518;9.864;2023-07-20T05:39:45;9.25;;;8.18;;
20709;SDS011;10516;51.518;9.864;2023-07-20T05:42:10;10.68;;;8.05;;
20709;SDS011;10516;51.518;9.864;2023-07-20T05:44:35;9.82;;;8.40;;
20709;SDS011;10516;51.518;9.864;2023-07-20T05:47:01;11.02;;;9.43;;
20709;SDS011;10516;51.518;9.864;2023-07-20T05:49:27;11.73;;;8.82;;
20709;SDS011;10516;51.518;9.864;2023-07-20T05:51:53;11.05;;;9.25;;
20709;SDS011;10516;51.518;9.864;2023-07-20T05:54:19;14.68;;;10.35;;
20709;SDS011;10516;51.518;9.864;2023-07-20T05:56:45;11.68;;;9.93;;
20709;SDS011;10516;51.518;9.864;2023-07-20T05:59:10;13.70;;;10.40;;
20709;SDS011;10516;51.518;9.864;2023-07-20T06:01:36;10.57;;;9.35;;
20709;SDS011;10516;51.518;9.864;2023-07-20T06:04:01;9.80;;;7.85;;
20709;SDS011;10516;51.518;9.864;2023-07-20T06:06:28;9.57;;;8.57;;
20709;SDS011;10516;51.518;9.864;2023-07-20T06:08:53;13.52;;;9.00;;
20709;SDS011;10516;51.518;9.864;2023-07-20T06:11:19;10.65;;;8.88;;
20709;SDS011;10516;51.518;9.864;2023-07-20T06:13:45;23.23;;;10.43;;
20709;SDS011;10516;51.518;9.864;2023-07-20T06:16:10;20.98;;;16.05;;
20709;SDS011;10516;51.518;9.864;2023-07-20T06:18:36;14.18;;;11.27;;
20709;SDS011;10516;51.518;9.864;2023-07-20T06:21:01;16.25;;;12.00;;
20709;SDS011;10516;51.518;9.864;2023-07-20T06:23:27;12.55;;;10.88;;
20709;SDS011;10516;51.518;9.864;2023-07-20T06:25:52;13.18;;;10.80;;
20709;SDS011;10516;51.518;9.864;2023-07-20T06:28:17;18.95;;;11.57;;
20709;SDS011;10516;51.518;9.864;2023-07-20T06:30:43;13.70;;;11.90;;
20709;SDS011;10516;51.518;9.864;2023-07-20T06:33:08;16.73;;;11.73;;
20709;SDS011;10516;51.518;9.864;2023-07-20T06:35:34;14.30;;;10.95;;
20709;SDS011;10516;51.518;9.864;2023-07-20T06:38:01;15.95;;;11.93;;
20709;SDS011;10516;51.518;9.864;2023-07-20T06:40:29;15.15;;;11.80;;
20709;SDS011;10516;51.518;9.864;2023-07-20T06:42:55;15.85;;;10.90;;
20709;SDS011;10516;51.518;9.864;2023-07-20T06:45:20;15.25;;;11.13;;
20709;SDS011;10516;51.518;9.864;2023-07-20T06:47:46;12.05;;;10.85;;
20709;SDS011;10516;51.518;9.864;2023-07-20T06:50:11;14.75;;;9.63;;
20709;SDS011;10516;51.518;9.864;2023-07-20T06:52:37;15.27;;;9.40;;
20709;SDS011;10516;51.518;9.864;2023-07-20T06:55:03;13.85;;;8.77;;
20709;SDS011;10516;51.518;9.864;2023-07-20T06:57:28;12.88;;;9.07;;
20709;SDS011;10516;51.518;9.864;2023-07-20T06:59:54;11.65;;;9.65;;
20709;SDS011;10516;51.518;9.864;2023-07-20T07:02:19;11.02;;;8.68;;
20709;SDS011;10516;51.518;9.864;2023-07-20T07:04:45;11.00;;;8.10;;
20709;SDS011;10516;51.518;9.864;2023-07-20T07:07:13;9.70;;;7.38;;
20709;SDS011;10516;51.518;9.864;2023-07-20T07:09:39;10.43;;;8.10;;
20709;SDS011;10516;51.518;9.864;2023-07-20T07:12:04;11.15;;;8.38;;
20709;SDS011;10516;51.518;9.864;2023-07-20T07:14:30;8.93;;;8.02;;
20709;SDS011;10516;51.518;9.864;2023-07-20T07:16:55;10.52;;;8.45;;
20709;SDS011;10516;51.518;9.864;2023-07-20T07:19:21;11.90;;;8.25;;
20709;SDS011;10516;51.518;9.864;2023-07-20T07:21:46;9.13;;;8.20;;
20709;SDS011;10516;51.518;9.864;2023-07-20T07:24:11;14.55;;;12.52;;
20709;SDS011;10516;51.518;9.864;2023-07-20T07:26:37;10.57;;;9.18;;
20709;SDS011;10516;51.518;9.864;2023-07-20T07:29:03;11.35;;;9.35;;
20709;SDS011;10516;51.518;9.864;2023-07-20T07:31:29;7.60;;;6.72;;
20709;SDS011;10516;51.518;9.864;2023-07-20T07:33:55;6.47;;;5.75;;
20709;SDS011;10516;51.518;9.864;2023-07-20T07:36:21;6.95;;;5.88;;
20709;SDS011;10516;51.518;9.864;2023-07-20T07:38:46;5.85;;;4.68;;
20709;SDS011;10516;51.518;9.864;2023-07-20T07:41:11;5.63;;;5.13;;
20709;SDS011;10516;51.518;9.864;2023-07-20T07:43:37;4.00;;;3.60;;
20709;SDS011;10516;51.518;9.864;2023-07-20T07:46:03;5.00;;;3.72;;
20709;SDS011;10516;51.518;9.864;2023-07-20T07:48:29;4.28;;;3.13;;
20709;SDS011;10516;51.518;9.864;2023-07-20T07:50:54;5.68;;;3.60;;
20709;SDS011;10516;51.518;9.864;2023-07-20T07:53:20;4.70;;;4.13;;
20709;SDS011;10516;51.518;9.864;2023-07-20T07:55:47;3.60;;;3.22;;
20709;SDS011;10516;51.518;9.864;2023-07-20T07:58:13;3.88;;;3.53;;
20709;SDS011;10516;51.518;9.864;2023-07-20T08:00:39;4.88;;;3.72;;
20709;SDS011;10516;51.518;9.864;2023-07-20T08:03:06;3.28;;;3.08;;
20709;SDS011;10516;51.518;9.864;2023-07-20T08:05:32;3.15;;;2.85;;
20709;SDS011;10516;51.518;9.864;2023-07-20T08:07:58;5.78;;;3.55;;
20709;SDS011;10516;51.518;9.864;2023-07-20T08:10:24;2.78;;;2.58;;
20709;SDS011;10516;51.518;9.864;2023-07-20T08:12:49;3.80;;;2.67;;
20709;SDS011;10516;51.518;9.864;2023-07-20T08:15:14;4.75;;;2.78;;
20709;SDS011;10516;51.518;9.864;2023-07-20T08:17:43;3.50;;;2.20;;
20709;SDS011;10516;51.518;9.864;2023-07-20T08:20:09;8.32;;;2.88;;
20709;SDS011;10516;51.518;9.864;2023-07-20T08:22:37;2.95;;;2.63;;
20709;SDS011;10516;51.518;9.864;2023-07-20T08:25:03;3.47;;;2.13;;
20709;SDS011;10516;51.518;9.864;2023-07-20T08:27:28;3.40;;;3.10;;
20709;SDS011;10516;51.518;9.864;2023-07-20T08:29:54;2.70;;;2.50;;
20709;SDS011;10516;51.518;9.864;2023-07-20T08:32:19;2.65;;;2.45;;
20709;SDS011;10516;51.518;9.864;2023-07-20T08:34:44;4.32;;;3.67;;
20709;SDS011;10516;51.518;9.864;2023-07-20T08:37:10;2.75;;;2.55;;
20709;SDS011;10516;51.518;9.864;2023-07-20T08:39:35;3.30;;;3.05;;
20709;SDS011;10516;51.518;9.864;2023-07-20T08:42:01;3.25;;;2.80;;
20709;SDS011;10516;51.518;9.864;2023-07-20T08:44:29;4.70;;;2.42;;
20709;SDS011;10516;51.518;9.864;2023-07-20T08:46:57;3.65;;;2.45;;
20709;SDS011;10516;51.518;9.864;2023-07-20T08:49:24;2.72;;;2.53;;
20709;SDS011;10516;51.518;9.864;2023-07-20T08:51:49;2.95;;;2.65;;
20709;SDS011;10516;51.518;9.864;2023-07-20T08:54:17;2.30;;;2.10;;
20709;SDS011;10516;51.518;9.864;2023-07-20T08:56:43;2.30;;;2.20;;
20709;SDS011;10516;51.518;9.864;2023-07-20T08:59:10;3.42;;;2.28;;
20709;SDS011;10516;51.518;9.864;2023-07-20T09:01:38;2.63;;;2.33;;
20709;SDS011;10516;51.518;9.864;2023-07-20T09:04:04;4.63;;;2.35;;
20709;SDS011;10516;51.518;9.864;2023-07-20T09:06:29;2.00;;;1.90;;
20709;SDS011;10516;51.518;9.864;2023-07-20T09:08:55;2.35;;;2.15;;
20709;SDS011;10516;51.518;9.864;2023-07-20T09:11:21;3.65;;;2.25;;
20709;SDS011;10516;51.518;9.864;2023-07-20T09:13:46;2.13;;;1.85;;
20709;SDS011;10516;51.518;9.864;2023-07-20T09:16:15;3.08;;;2.88;;
20709;SDS011;10516;51.518;9.864;2023-07-20T09:18:41;2.85;;;2.47;;
20709;SDS011;10516;51.518;9.864;2023-07-20T09:21:06;2.83;;;2.63;;
20709;SDS011;10516;51.518;9.864;2023-07-20T09:23:36;4.18;;;2.00;;
20709;SDS011;10516;51.518;9.864;2023-07-20T09:26:09;2.55;;;2.42;;
20709;SDS011;10516;51.518;9.864;2023-07-20T09:28:49;4.00;;;2.72;;
20709;SDS011;10516;51.518;9.864;2023-07-20T09:31:18;2.58;;;2.47;;
20709;SDS011;10516;51.518;9.864;2023-07-20T09:33:47;1.85;;;1.75;;
20709;SDS011;10516;51.518;9.864;2023-07-20T09:36:13;1.88;;;1.77;;
20709;SDS011;10516;51.518;9.864;2023-07-20T09:38:40;2.15;;;2.05;;
20709;SDS011;10516;51.518;9.864;2023-07-20T09:41:06;2.25;;;2.05;;
20709;SDS011;10516;51.518;9.864;2023-07-20T09:43:32;2.40;;;2.00;;
20709;SDS011;10516;51.518;9.864;2023-07-20T09:45:59;2.53;;;2.00;;
20709;SDS011;10516;51.518;9.864;2023-07-20T09:48:24;1.85;;;1.75;;
20709;SDS011;10516;51.518;9.864;2023-07-20T09:50:51;2.30;;;1.75;;
20709;SDS011;10516;51.518;9.864;2023-07-20T09:53:17;2.08;;;1.85;;
20709;SDS011;10516;51.518;9.864;2023-07-20T09:55:46;3.72;;;1.95;;
20709;SDS011;10516;51.518;9.864;2023-07-20T09:58:13;1.63;;;1.45;;
20709;SDS011;10516;51.518;9.864;2023-07-20T10:00:41;1.80;;;1.70;;
20709;SDS011;10516;51.518;9.864;2023-07-20T10:03:16;1.33;;;1.33;;
20709;SDS011;10516;51.518;9.864;2023-07-20T10:06:05;1.98;;;1.40;;
20709;SDS011;10516;51.518;9.864;2023-07-20T10:08:34;2.75;;;1.33;;
20709;SDS011;10516;51.518;9.864;2023-07-20T10:11:04;1.48;;;1.38;;
20709;SDS011;10516;51.518;9.864;2023-07-20T10:13:32;4.28;;;1.40;;
20709;SDS011;10516;51.518;9.864;2023-07-20T10:16:03;1.48;;;1.35;;
20709;SDS011;10516;51.518;9.864;2023-07-20T10:18:50;1.85;;;1.40;;
20709;SDS011;10516;51.518;9.864;2023-07-20T10:21:20;1.08;;;1.05;;
20709;SDS011;10516;51.518;9.864;2023-07-20T10:23:49;4.45;;;1.40;;
20709;SDS011;10516;51.518;9.864;2023-07-20T10:26:14;2.58;;;1.58;;
20709;SDS011;10516;51.518;9.864;2023-07-20T10:28:40;2.58;;;1.40;;
20709;SDS011;10516;51.518;9.864;2023-07-20T10:31:11;1.60;;;1.23;;
20709;SDS011;10516;51.518;9.864;2023-07-20T10:33:38;2.58;;;1.02;;
20709;SDS011;10516;51.518;9.864;2023-07-20T10:36:05;1.30;;;1.20;;
20709;SDS011;10516;51.518;9.864;2023-07-20T10:43:43;0.82;;;0.82;;
20709;SDS011;10516;51.518;9.864;2023-07-20T10:46:10;4.00;;;1.40;;
20709;SDS011;10516;51.518;9.864;2023-07-20T10:48:39;3.40;;;1.35;;
20709;SDS011;10516;51.518;9.864;2023-07-20T10:51:27;3.85;;;0.90;;
20709;SDS011;10516;51.518;9.864;2023-07-20T10:53:54;3.95;;;1.48;;
20709;SDS011;10516;51.518;9.864;2023-07-20T10:56:22;7.35;;;1.90;;
20709;SDS011;10516;51.518;9.864;2023-07-20T10:58:50;8.85;;;1.50;;
20709;SDS011;10516;51.518;9.864;2023-07-20T11:01:21;6.50;;;5.65;;
20709;SDS011;10516;51.518;9.864;2023-07-20T11:03:56;4.45;;;1.40;;
20709;SDS011;10516;51.518;9.864;2023-07-20T11:11:35;4.88;;;1.52;;
20709;SDS011;10516;51.518;9.864;2023-07-20T11:14:02;1.60;;;1.35;;
20709;SDS011;10516;51.518;9.864;2023-07-20T11:19:18;3.38;;;0.88;;
20709;SDS011;10516;51.518;9.864;2023-07-20T11:21:46;1.05;;;0.63;;
20709;SDS011;10516;51.518;9.864;2023-07-20T11:24:14;3.15;;;1.08;;
20709;SDS011;10516;51.518;9.864;2023-07-20T11:26:43;1.10;;;0.57;;
20709;SDS011;10516;51.518;9.864;2023-07-20T11:29:10;4.70;;;1.48;;
20709;SDS011;10516;51.518;9.864;2023-07-20T11:31:37;2.08;;;0.88;;
20709;SDS011;10516;51.518;9.864;2023-07-20T11:34:03;0.65;;;0.63;;
20709;SDS011;10516;51.518;9.864;2023-07-20T11:36:29;4.47;;;0.60;;
20709;SDS011;10516;51.518;9.864;2023-07-20T11:38:54;0.70;;;0.60;;
20709;SDS011;10516;51.518;9.864;2023-07-20T11:41:20;1.02;;;0.60;;
20709;SDS011;10516;51.518;9.864;2023-07-20T11:43:46;0.88;;;0.70;;
20709;SDS011;10516;51.518;9.864;2023-07-20T11:46:12;0.70;;;0.70;;
20709;SDS011;10516;51.518;9.864;2023-07-20T11:48:37;1.10;;;0.90;;
20709;SDS011;10516;51.518;9.864;2023-07-20T11:51:05;3.90;;;0.90;;
20709;SDS011;10516;51.518;9.864;2023-07-20T11:53:30;1.17;;;0.60;;
20709;SDS011;10516;51.518;9.864;2023-07-20T11:55:58;1.10;;;0.82;;
20709;SDS011;10516;51.518;9.864;2023-07-20T11:58:24;0.70;;;0.70;;
20709;SDS011;10516;51.518;9.864;2023-07-20T12:00:49;1.92;;;0.80;;
20709;SDS011;10516;51.518;9.864;2023-07-20T12:03:15;3.75;;;0.75;;
20709;SDS011;10516;51.518;9.864;2023-07-20T12:05:40;2.35;;;0.70;;
20709;SDS011;10516;51.518;9.864;2023-07-20T12:08:06;1.77;;;0.95;;
20709;SDS011;10516;51.518;9.864;2023-07-20T12:10:32;1.52;;;1.00;;
20709;SDS011;10516;51.518;9.864;2023-07-20T12:13:01;1.58;;;0.73;;
20709;SDS011;10516;51.518;9.864;2023-07-20T12:15:32;1.10;;;0.70;;
20709;SDS011;10516;51.518;9.864;2023-07-20T12:17:58;0.43;;;0.43;;
20709;SDS011;10516;51.518;9.864;2023-07-20T12:20:33;2.28;;;0.63;;
20709;SDS011;10516;51.518;9.864;2023-07-20T12:25:48;2.45;;;0.90;;
20709;SDS011;10516;51.518;9.864;2023-07-20T12:28:14;5.35;;;1.48;;
20709;SDS011;10516;51.518;9.864;2023-07-20T12:30:41;0.60;;;0.60;;
20709;SDS011;10516;51.518;9.864;2023-07-20T12:33:09;0.98;;;0.70;;
20709;SDS011;10516;51.518;9.864;2023-07-20T12:35:34;1.45;;;0.80;;
20709;SDS011;10516;51.518;9.864;2023-07-20T12:38:00;0.77;;;0.50;;
20709;SDS011;10516;51.518;9.864;2023-07-20T12:40:25;6.15;;;1.10;;
20709;SDS011;10516;51.518;9.864;2023-07-20T12:42:50;3.45;;;0.90;;
20709;SDS011;10516;51.518;9.864;2023-07-20T12:45:16;0.60;;;0.60;;
20709;SDS011;10516;51.518;9.864;2023-07-20T12:47:42;1.15;;;0.60;;
20709;SDS011;10516;51.518;9.864;2023-07-20T12:50:09;1.30;;;0.75;;
20709;SDS011;10516;51.518;9.864;2023-07-20T12:52:38;2.15;;;0.88;;
20709;SDS011;10516;51.518;9.864;2023-07-20T12:55:04;1.42;;;0.70;;
20709;SDS011;10516;51.518;9.864;2023-07-20T12:57:30;2.67;;;1.08;;
20709;SDS011;10516;51.518;9.864;2023-07-20T12:59:56;0.75;;;0.75;;
20709;SDS011;10516;51.518;9.864;2023-07-20T13:02:21;0.50;;;0.47;;
20709;SDS011;10516;51.518;9.864;2023-07-20T13:04:46;3.20;;;0.68;;
20709;SDS011;10516;51.518;9.864;2023-07-20T13:07:12;2.30;;;0.88;;
20709;SDS011;10516;51.518;9.864;2023-07-20T13:09:37;1.75;;;1.10;;
20709;SDS011;10516;51.518;9.864;2023-07-20T13:12:03;1.75;;;0.75;;
20709;SDS011;10516;51.518;9.864;2023-07-20T13:14:28;1.88;;;0.90;;
20709;SDS011;10516;51.518;9.864;2023-07-20T13:16:55;0.60;;;0.52;;
20709;SDS011;10516;51.518;9.864;2023-07-20T13:19:20;2.15;;;0.60;;
20709;SDS011;10516;51.518;9.864;2023-07-20T13:21:46;4.75;;;0.80;;
20709;SDS011;10516;51.518;9.864;2023-07-20T13:24:11;0.35;;;0.35;;
20709;SDS011;10516;51.518;9.864;2023-07-20T13:26:37;0.65;;;0.65;;
20709;SDS011;10516;51.518;9.864;2023-07-20T13:29:02;0.80;;;0.60;;
20709;SDS011;10516;51.518;9.864;2023-07-20T13:31:28;1.08;;;0.80;;
20709;SDS011;10516;51.518;9.864;2023-07-20T13:33:53;1.30;;;0.50;;
20709;SDS011;10516;51.518;9.864;2023-07-20T13:36:19;1.00;;;0.50;;
20709;SDS011;10516;51.518;9.864;2023-07-20T13:38:46;2.55;;;0.82;;
20709;SDS011;10516;51.518;9.864;2023-07-20T13:41:11;2.83;;;1.73;;
20709;SDS011;10516;51.518;9.864;2023-07-20T13:43:37;0.50;;;0.50;;
20709;SDS011;10516;51.518;9.864;2023-07-20T13:46:02;2.65;;;1.25;;
20709;SDS011;10516;51.518;9.864;2023-07-20T13:48:27;2.15;;;0.80;;
20709;SDS011;10516;51.518;9.864;2023-07-20T13:50:53;0.43;;;0.43;;
20709;SDS011;10516;51.518;9.864;2023-07-20T13:53:19;1.00;;;0.80;;
20709;SDS011;10516;51.518;9.864;2023-07-20T13:55:44;0.38;;;0.38;;
20709;SDS011;10516;51.518;9.864;2023-07-20T13:58:10;1.08;;;0.52;;
20709;SDS011;10516;51.518;9.864;2023-07-20T14:00:35;1.02;;;0.77;;
20709;SDS011;10516;51.518;9.864;2023-07-20T14:03:01;0.50;;;0.50;;
20709;SDS011;10516;51.518;9.864;2023-07-20T14:05:26;1.25;;;0.80;;
20709;SDS011;10516;51.518;9.864;2023-07-20T14:07:53;0.82;;;0.80;;
20709;SDS011;10516;51.518;9.864;2023-07-20T14:10:18;3.55;;;1.38;;
20709;SDS011;10516;51.518;9.864;2023-07-20T14:12:44;0.60;;;0.60;;
20709;SDS011;10516;51.518;9.864;2023-07-20T14:15:10;0.43;;;0.43;;
20709;SDS011;10516;51.518;9.864;2023-07-20T14:17:35;1.23;;;0.63;;
20709;SDS011;10516;51.518;9.864;2023-07-20T14:20:01;0.60;;;0.60;;
20709;SDS011;10516;51.518;9.864;2023-07-20T14:22:30;2.92;;;0.70;;
20709;SDS011;10516;51.518;9.864;2023-07-20T14:24:55;1.05;;;0.63;;
20709;SDS011;10516;51.518;9.864;2023-07-20T14:27:21;1.30;;;0.80;;
20709;SDS011;10516;51.518;9.864;2023-07-20T14:29:46;1.08;;;0.70;;
20709;SDS011;10516;51.518;9.864;2023-07-20T14:32:12;2.42;;;1.13;;
20709;SDS011;10516;51.518;9.864;2023-07-20T14:34:37;3.95;;;0.77;;
20709;SDS011;10516;51.518;9.864;2023-07-20T14:37:02;0.93;;;0.65;;
20709;SDS011;10516;51.518;9.864;2023-07-20T14:39:29;0.50;;;0.50;;
20709;SDS011;10516;51.518;9.864;2023-07-20T14:41:54;1.10;;;0.75;;
20709;SDS011;10516;51.518;9.864;2023-07-20T14:44:20;0.60;;;0.60;;
20709;SDS011;10516;51.518;9.864;2023-07-20T14:46:46;2.00;;;0.80;;
20709;SDS011;10516;51.518;9.864;2023-07-20T14:49:11;0.73;;;0.70;;
20709;SDS011;10516;51.518;9.864;2023-07-20T14:51:36;2.47;;;0.88;;
20709;SDS011;10516;51.518;9.864;2023-07-20T14:54:08;1.20;;;0.77;;
20709;SDS011;10516;51.518;9.864;2023-07-20T14:56:34;1.55;;;0.50;;
20709;SDS011;10516;51.518;9.864;2023-07-20T14:58:59;4.78;;;1.40;;
20709;SDS011;10516;51.518;9.864;2023-07-20T15:01:25;2.50;;;0.60;;
20709;SDS011;10516;51.518;9.864;2023-07-20T15:03:51;1.02;;;0.70;;
20709;SDS011;10516;51.518;9.864;2023-07-20T15:06:18;0.70;;;0.70;;
20709;SDS011;10516;51.518;9.864;2023-07-20T15:08:44;2.35;;;0.98;;